sensor_id;sensor_type;location;lat;lon;timestamp;P1;durP1;ratioP1;P2;durP2;ratioP2
74920;SDS011;63483;47.384;8.860;2023-04-24T00:01:46;1.80;;;0.60;;
74920;SDS011;63483;47.384;8.860;2023-04-24T00:04:11;2.90;;;1.10;;
74920;SDS011;63483;47.384;8.860;2023-04-24T00:06:39;1.65;;;0.60;;
74920;SDS011;63483;47.384;8.860;2023-04-24T00:09:07;1.23;;;0.63;;
74920;SDS011;63483;47.384;8.860;2023-04-24T00:11:34;1.80;;;0.88;;
74920;SDS011;63483;47.384;8.860;2023-04-24T00:14:00;1.40;;;0.77;;
74920;SDS011;63483;47.384;8.860;2023-04-24T00:16:26;1.50;;;0.73;;
74920;SDS011;63483;47.384;8.860;2023-04-24T00:18:51;1.50;;;1.00;;
74920;SDS011;63483;47.384;8.860;2023-04-24T00:21:21;2.10;;;1.10;;
74920;SDS011;63483;47.384;8.860;2023-04-24T00:23:46;1.67;;;0.50;;
74920;SDS011;63483;47.384;8.860;2023-04-24T00:26:12;1.35;;;0.93;;
74920;SDS011;63483;47.384;8.860;2023-04-24T00:28:37;2.07;;;0.87;;
74920;SDS011;63483;47.384;8.860;2023-04-24T00:31:03;1.67;;;0.53;;
74920;SDS011;63483;47.384;8.860;2023-04-24T00:33:28;2.23;;;0.70;;
74920;SDS011;63483;47.384;8.860;2023-04-24T00:35:53;1.13;;;0.60;;
74920;SDS011;63483;47.384;8.860;2023-04-24T00:38:19;3.80;;;1.00;;
74920;SDS011;63483;47.384;8.860;2023-04-24T00:40:44;2.20;;;0.70;;
74920;SDS011;63483;47.384;8.860;2023-04-24T00:43:10;1.57;;;0.70;;
74920;SDS011;63483;47.384;8.860;2023-04-24T00:45:37;1.88;;;0.82;;
74920;SDS011;63483;47.384;8.860;2023-04-24T00:48:02;1.43;;;1.03;;
74920;SDS011;63483;47.384;8.860;2023-04-24T00:50:28;1.40;;;0.70;;
74920;SDS011;63483;47.384;8.860;2023-04-24T00:52:55;1.77;;;1.17;;
74920;SDS011;63483;47.384;8.860;2023-04-24T00:55:20;1.73;;;0.80;;
74920;SDS011;63483;47.384;8.860;2023-04-24T00:57:46;1.20;;;0.83;;
74920;SDS011;63483;47.384;8.860;2023-04-24T01:00:13;1.10;;;0.52;;
74920;SDS011;63483;47.384;8.860;2023-04-24T01:02:40;1.00;;;0.40;;
74920;SDS011;63483;47.384;8.860;2023-04-24T01:05:10;1.42;;;0.50;;
74920;SDS011;63483;47.384;8.860;2023-04-24T01:07:36;1.00;;;0.53;;
74920;SDS011;63483;47.384;8.860;2023-04-24T01:10:02;1.38;;;0.40;;
74920;SDS011;63483;47.384;8.860;2023-04-24T01:12:28;2.50;;;0.80;;
74920;SDS011;63483;47.384;8.860;2023-04-24T01:14:54;1.10;;;0.80;;
74920;SDS011;63483;47.384;8.860;2023-04-24T01:17:20;1.52;;;0.20;;
74920;SDS011;63483;47.384;8.860;2023-04-24T01:19:46;1.23;;;0.77;;
74920;SDS011;63483;47.384;8.860;2023-04-24T01:22:12;1.02;;;0.60;;
74920;SDS011;63483;47.384;8.860;2023-04-24T01:24:41;1.13;;;0.60;;
74920;SDS011;63483;47.384;8.860;2023-04-24T01:27:08;1.75;;;0.70;;
74920;SDS011;63483;47.384;8.860;2023-04-24T01:29:35;1.85;;;0.65;;
74920;SDS011;63483;47.384;8.860;2023-04-24T01:32:01;1.73;;;0.90;;
74920;SDS011;63483;47.384;8.860;2023-04-24T01:34:27;0.95;;;0.73;;
74920;SDS011;63483;47.384;8.860;2023-04-24T01:36:52;1.20;;;0.57;;
74920;SDS011;63483;47.384;8.860;2023-04-24T01:39:18;1.07;;;0.60;;
74920;SDS011;63483;47.384;8.860;2023-04-24T01:41:45;1.83;;;0.95;;
74920;SDS011;63483;47.384;8.860;2023-04-24T01:44:11;1.13;;;0.90;;
74920;SDS011;63483;47.384;8.860;2023-04-24T01:46:37;1.30;;;0.70;;
74920;SDS011;63483;47.384;8.860;2023-04-24T01:49:02;0.82;;;0.50;;
74920;SDS011;63483;47.384;8.860;2023-04-24T01:51:28;0.80;;;0.43;;
74920;SDS011;63483;47.384;8.860;2023-04-24T01:53:53;1.63;;;0.50;;
74920;SDS011;63483;47.384;8.860;2023-04-24T01:56:22;1.10;;;0.47;;
74920;SDS011;63483;47.384;8.860;2023-04-24T01:58:48;1.30;;;1.10;;
74920;SDS011;63483;47.384;8.860;2023-04-24T02:01:18;1.23;;;0.88;;
74920;SDS011;63483;47.384;8.860;2023-04-24T02:03:45;1.65;;;0.60;;
74920;SDS011;63483;47.384;8.860;2023-04-24T02:06:10;1.00;;;0.57;;
74920;SDS011;63483;47.384;8.860;2023-04-24T02:08:36;2.37;;;0.73;;
74920;SDS011;63483;47.384;8.860;2023-04-24T02:11:01;0.93;;;0.70;;
74920;SDS011;63483;47.384;8.860;2023-04-24T02:13:27;1.00;;;0.65;;
74920;SDS011;63483;47.384;8.860;2023-04-24T02:15:53;0.60;;;0.30;;
74920;SDS011;63483;47.384;8.860;2023-04-24T02:18:18;0.82;;;0.52;;
74920;SDS011;63483;47.384;8.860;2023-04-24T02:20:43;1.03;;;0.70;;
74920;SDS011;63483;47.384;8.860;2023-04-24T02:23:09;1.20;;;0.67;;
74920;SDS011;63483;47.384;8.860;2023-04-24T02:25:34;0.80;;;0.40;;
74920;SDS011;63483;47.384;8.860;2023-04-24T02:28:00;1.23;;;0.70;;
74920;SDS011;63483;47.384;8.860;2023-04-24T02:30:25;1.23;;;0.50;;
74920;SDS011;63483;47.384;8.860;2023-04-24T02:32:51;1.30;;;0.80;;
74920;SDS011;63483;47.384;8.860;2023-04-24T02:35:16;1.10;;;0.60;;
74920;SDS011;63483;47.384;8.860;2023-04-24T02:37:42;1.13;;;0.60;;
74920;SDS011;63483;47.384;8.860;2023-04-24T02:40:07;1.30;;;0.50;;
74920;SDS011;63483;47.384;8.860;2023-04-24T02:42:33;1.23;;;0.82;;
74920;SDS011;63483;47.384;8.860;2023-04-24T02:44:58;0.80;;;0.40;;
74920;SDS011;63483;47.384;8.860;2023-04-24T02:47:24;1.00;;;0.63;;
74920;SDS011;63483;47.384;8.860;2023-04-24T02:49:49;1.67;;;0.50;;
74920;SDS011;63483;47.384;8.860;2023-04-24T02:52:15;1.20;;;1.00;;
74920;SDS011;63483;47.384;8.860;2023-04-24T02:54:40;1.17;;;0.73;;
74920;SDS011;63483;47.384;8.860;2023-04-24T02:57:05;0.85;;;0.63;;
74920;SDS011;63483;47.384;8.860;2023-04-24T02:59:31;2.87;;;0.40;;
74920;SDS011;63483;47.384;8.860;2023-04-24T03:01:56;1.37;;;0.60;;
74920;SDS011;63483;47.384;8.860;2023-04-24T03:04:22;3.77;;;0.50;;
74920;SDS011;63483;47.384;8.860;2023-04-24T03:06:48;1.90;;;0.60;;
74920;SDS011;63483;47.384;8.860;2023-04-24T03:09:13;1.00;;;0.40;;
74920;SDS011;63483;47.384;8.860;2023-04-24T03:11:38;1.50;;;1.00;;
74920;SDS011;63483;47.384;8.860;2023-04-24T03:14:05;1.15;;;0.40;;
74920;SDS011;63483;47.384;8.860;2023-04-24T03:16:30;1.03;;;0.57;;
74920;SDS011;63483;47.384;8.860;2023-04-24T03:18:56;1.05;;;0.77;;
74920;SDS011;63483;47.384;8.860;2023-04-24T03:21:22;1.30;;;0.73;;
74920;SDS011;63483;47.384;8.860;2023-04-24T03:23:47;2.23;;;0.60;;
74920;SDS011;63483;47.384;8.860;2023-04-24T03:26:12;1.30;;;0.50;;
74920;SDS011;63483;47.384;8.860;2023-04-24T03:28:38;1.30;;;0.70;;
74920;SDS011;63483;47.384;8.860;2023-04-24T03:31:03;1.63;;;0.60;;
74920;SDS011;63483;47.384;8.860;2023-04-24T03:33:28;1.90;;;0.60;;
74920;SDS011;63483;47.384;8.860;2023-04-24T03:35:54;0.90;;;0.60;;
74920;SDS011;63483;47.384;8.860;2023-04-24T03:38:19;1.03;;;0.70;;
74920;SDS011;63483;47.384;8.860;2023-04-24T03:40:45;1.07;;;0.73;;
74920;SDS011;63483;47.384;8.860;2023-04-24T03:43:10;0.98;;;0.50;;
74920;SDS011;63483;47.384;8.860;2023-04-24T03:45:35;1.17;;;0.63;;
74920;SDS011;63483;47.384;8.860;2023-04-24T03:48:01;0.90;;;0.77;;
74920;SDS011;63483;47.384;8.860;2023-04-24T03:50:26;1.00;;;0.60;;
74920;SDS011;63483;47.384;8.860;2023-04-24T03:52:51;0.80;;;0.50;;
74920;SDS011;63483;47.384;8.860;2023-04-24T03:55:17;1.80;;;0.70;;
74920;SDS011;63483;47.384;8.860;2023-04-24T03:57:42;1.58;;;0.50;;
74920;SDS011;63483;47.384;8.860;2023-04-24T04:00:08;0.77;;;0.50;;
74920;SDS011;63483;47.384;8.860;2023-04-24T04:02:34;0.93;;;0.30;;
74920;SDS011;63483;47.384;8.860;2023-04-24T04:04:59;0.83;;;0.50;;
74920;SDS011;63483;47.384;8.860;2023-04-24T04:07:24;1.17;;;0.57;;
74920;SDS011;63483;47.384;8.860;2023-04-24T04:09:50;0.63;;;0.33;;
74920;SDS011;63483;47.384;8.860;2023-04-24T04:12:16;0.80;;;0.30;;
74920;SDS011;63483;47.384;8.860;2023-04-24T04:14:41;0.70;;;0.40;;
74920;SDS011;63483;47.384;8.860;2023-04-24T04:17:06;0.70;;;0.50;;
74920;SDS011;63483;47.384;8.860;2023-04-24T04:19:32;1.00;;;0.70;;
74920;SDS011;63483;47.384;8.860;2023-04-24T04:21:57;0.90;;;0.47;;
74920;SDS011;63483;47.384;8.860;2023-04-24T04:24:23;0.70;;;0.40;;
74920;SDS011;63483;47.384;8.860;2023-04-24T04:26:49;0.60;;;0.30;;
74920;SDS011;63483;47.384;8.860;2023-04-24T04:29:16;0.80;;;0.50;;
74920;SDS011;63483;47.384;8.860;2023-04-24T04:31:41;1.70;;;0.38;;
74920;SDS011;63483;47.384;8.860;2023-04-24T04:34:07;0.70;;;0.30;;
74920;SDS011;63483;47.384;8.860;2023-04-24T04:36:32;1.00;;;0.60;;
74920;SDS011;63483;47.384;8.860;2023-04-24T04:39:01;0.77;;;0.50;;
74920;SDS011;63483;47.384;8.860;2023-04-24T04:41:27;1.00;;;0.40;;
74920;SDS011;63483;47.384;8.860;2023-04-24T04:43:53;0.70;;;0.30;;
74920;SDS011;63483;47.384;8.860;2023-04-24T04:46:18;1.90;;;0.30;;
74920;SDS011;63483;47.384;8.860;2023-04-24T04:48:43;1.17;;;0.30;;
74920;SDS011;63483;47.384;8.860;2023-04-24T04:51:09;1.05;;;0.32;;
74920;SDS011;63483;47.384;8.860;2023-04-24T04:53:34;1.77;;;0.40;;
74920;SDS011;63483;47.384;8.860;2023-04-24T04:56:00;0.70;;;0.50;;
74920;SDS011;63483;47.384;8.860;2023-04-24T04:58:25;1.40;;;0.50;;
74920;SDS011;63483;47.384;8.860;2023-04-24T05:00:51;0.80;;;0.30;;
74920;SDS011;63483;47.384;8.860;2023-04-24T05:03:17;0.80;;;0.40;;
74920;SDS011;63483;47.384;8.860;2023-04-24T05:05:42;1.52;;;0.50;;
74920;SDS011;63483;47.384;8.860;2023-04-24T05:08:08;1.20;;;0.57;;
74920;SDS011;63483;47.384;8.860;2023-04-24T05:10:33;0.70;;;0.47;;
74920;SDS011;63483;47.384;8.860;2023-04-24T05:12:59;1.13;;;0.50;;
74920;SDS011;63483;47.384;8.860;2023-04-24T05:15:24;0.70;;;0.40;;
74920;SDS011;63483;47.384;8.860;2023-04-24T05:17:50;0.70;;;0.20;;
74920;SDS011;63483;47.384;8.860;2023-04-24T05:20:15;1.10;;;0.40;;
74920;SDS011;63483;47.384;8.860;2023-04-24T05:22:41;1.07;;;0.63;;
74920;SDS011;63483;47.384;8.860;2023-04-24T05:25:07;0.90;;;0.63;;
74920;SDS011;63483;47.384;8.860;2023-04-24T05:27:32;1.60;;;0.67;;
74920;SDS011;63483;47.384;8.860;2023-04-24T05:29:58;0.83;;;0.43;;
74920;SDS011;63483;47.384;8.860;2023-04-24T05:32:23;1.03;;;0.50;;
74920;SDS011;63483;47.384;8.860;2023-04-24T05:34:48;1.55;;;0.40;;
74920;SDS011;63483;47.384;8.860;2023-04-24T05:37:14;0.87;;;0.50;;
74920;SDS011;63483;47.384;8.860;2023-04-24T05:39:39;0.90;;;0.50;;
74920;SDS011;63483;47.384;8.860;2023-04-24T05:42:06;2.70;;;0.30;;
74920;SDS011;63483;47.384;8.860;2023-04-24T05:44:31;1.23;;;0.27;;
74920;SDS011;63483;47.384;8.860;2023-04-24T05:46:57;1.00;;;0.50;;
74920;SDS011;63483;47.384;8.860;2023-04-24T05:49:22;1.70;;;0.90;;
74920;SDS011;63483;47.384;8.860;2023-04-24T05:51:47;1.17;;;0.50;;
74920;SDS011;63483;47.384;8.860;2023-04-24T05:54:13;0.90;;;0.70;;
74920;SDS011;63483;47.384;8.860;2023-04-24T05:56:38;1.00;;;0.57;;
74920;SDS011;63483;47.384;8.860;2023-04-24T05:59:04;1.52;;;0.80;;
74920;SDS011;63483;47.384;8.860;2023-04-24T06:01:30;0.90;;;0.53;;
74920;SDS011;63483;47.384;8.860;2023-04-24T06:03:56;0.90;;;0.50;;
74920;SDS011;63483;47.384;8.860;2023-04-24T06:06:21;1.37;;;0.40;;
74920;SDS011;63483;47.384;8.860;2023-04-24T06:08:47;1.57;;;0.70;;
74920;SDS011;63483;47.384;8.860;2023-04-24T06:11:12;1.20;;;0.80;;
74920;SDS011;63483;47.384;8.860;2023-04-24T06:13:38;2.73;;;0.90;;
74920;SDS011;63483;47.384;8.860;2023-04-24T06:16:04;1.40;;;0.80;;
74920;SDS011;63483;47.384;8.860;2023-04-24T06:18:30;1.60;;;0.77;;
74920;SDS011;63483;47.384;8.860;2023-04-24T06:20:55;1.63;;;1.53;;
74920;SDS011;63483;47.384;8.860;2023-04-24T06:23:20;1.30;;;0.90;;
74920;SDS011;63483;47.384;8.860;2023-04-24T06:25:46;1.83;;;1.00;;
74920;SDS011;63483;47.384;8.860;2023-04-24T06:28:11;1.42;;;0.77;;
74920;SDS011;63483;47.384;8.860;2023-04-24T06:30:37;1.57;;;0.83;;
74920;SDS011;63483;47.384;8.860;2023-04-24T06:33:02;2.50;;;0.97;;
74920;SDS011;63483;47.384;8.860;2023-04-24T06:35:28;1.50;;;0.80;;
74920;SDS011;63483;47.384;8.860;2023-04-24T06:37:53;1.43;;;0.70;;
74920;SDS011;63483;47.384;8.860;2023-04-24T06:40:18;1.17;;;0.63;;
74920;SDS011;63483;47.384;8.860;2023-04-24T06:42:44;1.40;;;1.00;;
74920;SDS011;63483;47.384;8.860;2023-04-24T06:45:09;1.43;;;0.90;;
74920;SDS011;63483;47.384;8.860;2023-04-24T06:47:35;1.90;;;0.80;;
74920;SDS011;63483;47.384;8.860;2023-04-24T06:50:00;2.00;;;0.65;;
74920;SDS011;63483;47.384;8.860;2023-04-24T06:52:26;2.00;;;0.87;;
74920;SDS011;63483;47.384;8.860;2023-04-24T06:54:51;1.20;;;0.73;;
74920;SDS011;63483;47.384;8.860;2023-04-24T06:57:17;1.33;;;1.00;;
74920;SDS011;63483;47.384;8.860;2023-04-24T06:59:42;1.27;;;0.77;;
74920;SDS011;63483;47.384;8.860;2023-04-24T07:02:08;1.17;;;0.83;;
74920;SDS011;63483;47.384;8.860;2023-04-24T07:04:33;1.23;;;1.00;;
74920;SDS011;63483;47.384;8.860;2023-04-24T07:06:59;154.70;;;4.67;;
74920;SDS011;63483;47.384;8.860;2023-04-24T07:09:25;2.15;;;0.50;;
74920;SDS011;63483;47.384;8.860;2023-04-24T07:11:51;1.10;;;0.67;;
74920;SDS011;63483;47.384;8.860;2023-04-24T07:14:17;1.15;;;0.57;;
74920;SDS011;63483;47.384;8.860;2023-04-24T07:16:42;1.00;;;0.60;;
74920;SDS011;63483;47.384;8.860;2023-04-24T07:19:08;1.77;;;0.73;;
74920;SDS011;63483;47.384;8.860;2023-04-24T07:21:34;0.90;;;0.40;;
74920;SDS011;63483;47.384;8.860;2023-04-24T07:23:59;2.50;;;0.93;;
74920;SDS011;63483;47.384;8.860;2023-04-24T07:26:25;1.70;;;0.83;;
74920;SDS011;63483;47.384;8.860;2023-04-24T07:28:51;1.67;;;0.90;;
74920;SDS011;63483;47.384;8.860;2023-04-24T07:31:16;1.73;;;1.13;;
74920;SDS011;63483;47.384;8.860;2023-04-24T07:33:42;2.67;;;0.98;;
74920;SDS011;63483;47.384;8.860;2023-04-24T07:36:07;1.63;;;1.03;;
74920;SDS011;63483;47.384;8.860;2023-04-24T07:38:32;2.37;;;0.97;;
74920;SDS011;63483;47.384;8.860;2023-04-24T07:40:58;2.40;;;1.30;;
74920;SDS011;63483;47.384;8.860;2023-04-24T07:43:23;2.63;;;0.83;;
74920;SDS011;63483;47.384;8.860;2023-04-24T07:45:51;1.83;;;1.00;;
74920;SDS011;63483;47.384;8.860;2023-04-24T07:48:17;2.45;;;1.25;;
74920;SDS011;63483;47.384;8.860;2023-04-24T07:50:43;1.67;;;0.73;;
74920;SDS011;63483;47.384;8.860;2023-04-24T07:53:09;2.15;;;1.00;;
74920;SDS011;63483;47.384;8.860;2023-04-24T07:55:35;1.90;;;1.13;;
74920;SDS011;63483;47.384;8.860;2023-04-24T07:58:00;3.72;;;1.40;;
74920;SDS011;63483;47.384;8.860;2023-04-24T08:00:26;1.83;;;1.13;;
74920;SDS011;63483;47.384;8.860;2023-04-24T08:02:51;2.90;;;1.23;;
74920;SDS011;63483;47.384;8.860;2023-04-24T08:05:16;3.20;;;1.50;;
74920;SDS011;63483;47.384;8.860;2023-04-24T08:07:42;2.40;;;1.17;;
74920;SDS011;63483;47.384;8.860;2023-04-24T08:10:09;3.88;;;1.13;;
74920;SDS011;63483;47.384;8.860;2023-04-24T08:12:35;1.98;;;0.88;;
74920;SDS011;63483;47.384;8.860;2023-04-24T08:15:01;1.80;;;1.33;;
74920;SDS011;63483;47.384;8.860;2023-04-24T08:17:26;2.43;;;1.00;;
74920;SDS011;63483;47.384;8.860;2023-04-24T08:19:51;3.17;;;1.43;;
74920;SDS011;63483;47.384;8.860;2023-04-24T08:22:18;2.13;;;1.35;;
74920;SDS011;63483;47.384;8.860;2023-04-24T08:24:43;1.90;;;1.23;;
74920;SDS011;63483;47.384;8.860;2023-04-24T08:27:09;3.20;;;1.20;;
74920;SDS011;63483;47.384;8.860;2023-04-24T08:29:35;1.92;;;1.15;;
74920;SDS011;63483;47.384;8.860;2023-04-24T08:32:01;1.88;;;1.00;;
74920;SDS011;63483;47.384;8.860;2023-04-24T08:34:26;3.00;;;1.53;;
74920;SDS011;63483;47.384;8.860;2023-04-24T08:36:51;2.40;;;1.17;;
74920;SDS011;63483;47.384;8.860;2023-04-24T08:39:17;3.07;;;1.47;;
74920;SDS011;63483;47.384;8.860;2023-04-24T08:41:43;2.25;;;1.40;;
74920;SDS011;63483;47.384;8.860;2023-04-24T08:44:10;2.97;;;1.50;;
74920;SDS011;63483;47.384;8.860;2023-04-24T08:46:39;3.17;;;1.30;;
74920;SDS011;63483;47.384;8.860;2023-04-24T08:49:05;2.22;;;1.52;;
74920;SDS011;63483;47.384;8.860;2023-04-24T08:51:31;2.00;;;1.47;;
74920;SDS011;63483;47.384;8.860;2023-04-24T08:53:57;2.70;;;1.43;;
74920;SDS011;63483;47.384;8.860;2023-04-24T08:56:22;4.00;;;1.90;;
74920;SDS011;63483;47.384;8.860;2023-04-24T08:58:52;3.17;;;1.20;;
74920;SDS011;63483;47.384;8.860;2023-04-24T09:01:19;2.28;;;1.70;;
74920;SDS011;63483;47.384;8.860;2023-04-24T09:03:45;3.57;;;1.90;;
74920;SDS011;63483;47.384;8.860;2023-04-24T09:06:13;3.88;;;1.38;;
74920;SDS011;63483;47.384;8.860;2023-04-24T09:08:39;3.63;;;1.95;;
74920;SDS011;63483;47.384;8.860;2023-04-24T09:11:06;3.55;;;1.77;;
74920;SDS011;63483;47.384;8.860;2023-04-24T09:13:31;3.57;;;1.93;;
74920;SDS011;63483;47.384;8.860;2023-04-24T09:15:57;3.38;;;1.85;;
74920;SDS011;63483;47.384;8.860;2023-04-24T09:18:23;3.97;;;2.17;;
74920;SDS011;63483;47.384;8.860;2023-04-24T09:20:58;2.97;;;2.13;;
74920;SDS011;63483;47.384;8.860;2023-04-24T09:23:29;3.23;;;2.10;;
74920;SDS011;63483;47.384;8.860;2023-04-24T09:25:55;5.35;;;1.95;;
74920;SDS011;63483;47.384;8.860;2023-04-24T09:28:40;4.60;;;2.30;;
74920;SDS011;63483;47.384;8.860;2023-04-24T09:33:34;3.00;;;1.90;;
74920;SDS011;63483;47.384;8.860;2023-04-24T09:36:00;3.73;;;2.17;;
74920;SDS011;63483;47.384;8.860;2023-04-24T09:38:37;5.82;;;2.70;;
74920;SDS011;63483;47.384;8.860;2023-04-24T09:41:07;3.88;;;2.65;;
74920;SDS011;63483;47.384;8.860;2023-04-24T09:43:33;4.60;;;2.83;;
74920;SDS011;63483;47.384;8.860;2023-04-24T09:46:04;3.28;;;1.83;;
74920;SDS011;63483;47.384;8.860;2023-04-24T09:48:31;4.00;;;2.30;;
74920;SDS011;63483;47.384;8.860;2023-04-24T09:51:01;3.63;;;2.38;;
74920;SDS011;63483;47.384;8.860;2023-04-24T09:53:28;4.38;;;2.33;;
74920;SDS011;63483;47.384;8.860;2023-04-24T09:55:54;6.15;;;2.40;;
74920;SDS011;63483;47.384;8.860;2023-04-24T09:58:26;6.67;;;2.60;;
74920;SDS011;63483;47.384;8.860;2023-04-24T10:00:53;4.88;;;2.10;;
74920;SDS011;63483;47.384;8.860;2023-04-24T10:03:20;3.65;;;2.13;;
74920;SDS011;63483;47.384;8.860;2023-04-24T10:05:46;3.53;;;2.10;;
74920;SDS011;63483;47.384;8.860;2023-04-24T10:08:12;5.72;;;2.40;;
74920;SDS011;63483;47.384;8.860;2023-04-24T10:10:40;5.18;;;2.85;;
74920;SDS011;63483;47.384;8.860;2023-04-24T10:13:09;3.45;;;2.20;;
74920;SDS011;63483;47.384;8.860;2023-04-24T10:15:36;3.65;;;2.08;;
74920;SDS011;63483;47.384;8.860;2023-04-24T10:18:04;3.60;;;2.17;;
74920;SDS011;63483;47.384;8.860;2023-04-24T10:20:30;4.35;;;2.05;;
74920;SDS011;63483;47.384;8.860;2023-04-24T10:22:56;3.60;;;2.30;;
74920;SDS011;63483;47.384;8.860;2023-04-24T10:25:23;5.05;;;1.95;;
74920;SDS011;63483;47.384;8.860;2023-04-24T10:27:51;4.10;;;2.10;;
74920;SDS011;63483;47.384;8.860;2023-04-24T10:30:18;4.18;;;2.30;;
74920;SDS011;63483;47.384;8.860;2023-04-24T10:32:44;2.90;;;2.10;;
74920;SDS011;63483;47.384;8.860;2023-04-24T10:35:10;3.63;;;2.40;;
74920;SDS011;63483;47.384;8.860;2023-04-24T10:37:38;2.97;;;1.92;;
74920;SDS011;63483;47.384;8.860;2023-04-24T10:40:07;3.63;;;2.25;;
74920;SDS011;63483;47.384;8.860;2023-04-24T10:42:34;3.10;;;1.83;;
74920;SDS011;63483;47.384;8.860;2023-04-24T10:45:04;3.03;;;1.80;;
74920;SDS011;63483;47.384;8.860;2023-04-24T10:47:38;3.65;;;2.13;;
74920;SDS011;63483;47.384;8.860;2023-04-24T10:50:07;3.63;;;2.00;;
74920;SDS011;63483;47.384;8.860;2023-04-24T10:52:44;3.78;;;1.80;;
74920;SDS011;63483;47.384;8.860;2023-04-24T10:55:11;2.70;;;1.80;;
74920;SDS011;63483;47.384;8.860;2023-04-24T10:57:39;3.33;;;2.10;;
74920;SDS011;63483;47.384;8.860;2023-04-24T11:02:39;2.45;;;1.48;;
74920;SDS011;63483;47.384;8.860;2023-04-24T11:05:08;2.42;;;1.77;;
74920;SDS011;63483;47.384;8.860;2023-04-24T11:13:24;2.83;;;1.60;;
74920;SDS011;63483;47.384;8.860;2023-04-24T11:18:40;2.97;;;1.90;;
74920;SDS011;63483;47.384;8.860;2023-04-24T11:21:13;3.08;;;1.42;;
74920;SDS011;63483;47.384;8.860;2023-04-24T11:23:42;2.65;;;1.83;;
74920;SDS011;63483;47.384;8.860;2023-04-24T11:26:11;3.73;;;1.70;;
74920;SDS011;63483;47.384;8.860;2023-04-24T11:28:43;4.65;;;1.73;;
74920;SDS011;63483;47.384;8.860;2023-04-24T11:34:09;2.50;;;1.55;;
74920;SDS011;63483;47.384;8.860;2023-04-24T11:36:35;3.63;;;1.70;;
74920;SDS011;63483;47.384;8.860;2023-04-24T11:39:01;3.13;;;1.40;;
74920;SDS011;63483;47.384;8.860;2023-04-24T11:41:27;4.53;;;1.73;;
74920;SDS011;63483;47.384;8.860;2023-04-24T11:43:53;4.72;;;2.33;;
74920;SDS011;63483;47.384;8.860;2023-04-24T11:46:20;4.72;;;1.83;;
74920;SDS011;63483;47.384;8.860;2023-04-24T11:48:46;2.85;;;1.38;;
74920;SDS011;63483;47.384;8.860;2023-04-24T11:51:12;4.20;;;1.70;;
74920;SDS011;63483;47.384;8.860;2023-04-24T11:53:38;6.65;;;1.92;;
74920;SDS011;63483;47.384;8.860;2023-04-24T11:56:04;4.40;;;2.30;;
74920;SDS011;63483;47.384;8.860;2023-04-24T11:58:34;4.63;;;2.08;;
74920;SDS011;63483;47.384;8.860;2023-04-24T12:01:00;3.88;;;2.10;;
74920;SDS011;63483;47.384;8.860;2023-04-24T12:03:26;3.47;;;2.10;;
74920;SDS011;63483;47.384;8.860;2023-04-24T12:05:51;4.03;;;2.13;;
74920;SDS011;63483;47.384;8.860;2023-04-24T12:08:27;6.27;;;2.57;;
74920;SDS011;63483;47.384;8.860;2023-04-24T12:10:53;3.75;;;2.15;;
74920;SDS011;63483;47.384;8.860;2023-04-24T12:13:18;4.23;;;2.33;;
74920;SDS011;63483;47.384;8.860;2023-04-24T12:15:44;3.00;;;1.93;;
74920;SDS011;63483;47.384;8.860;2023-04-24T12:18:11;4.07;;;2.47;;
74920;SDS011;63483;47.384;8.860;2023-04-24T12:20:37;2.55;;;1.58;;
74920;SDS011;63483;47.384;8.860;2023-04-24T12:23:03;3.37;;;2.23;;
74920;SDS011;63483;47.384;8.860;2023-04-24T12:25:29;4.47;;;2.03;;
74920;SDS011;63483;47.384;8.860;2023-04-24T12:30:27;2.30;;;1.90;;
74920;SDS011;63483;47.384;8.860;2023-04-24T12:32:54;3.70;;;1.83;;
74920;SDS011;63483;47.384;8.860;2023-04-24T12:35:22;2.53;;;1.40;;
74920;SDS011;63483;47.384;8.860;2023-04-24T12:37:49;3.28;;;2.13;;
74920;SDS011;63483;47.384;8.860;2023-04-24T12:40:15;4.37;;;1.73;;
74920;SDS011;63483;47.384;8.860;2023-04-24T12:42:42;3.95;;;1.80;;
74920;SDS011;63483;47.384;8.860;2023-04-24T12:45:09;3.50;;;2.25;;
74920;SDS011;63483;47.384;8.860;2023-04-24T12:47:37;3.83;;;2.10;;
74920;SDS011;63483;47.384;8.860;2023-04-24T12:50:03;3.63;;;2.10;;
74920;SDS011;63483;47.384;8.860;2023-04-24T12:52:29;4.00;;;2.03;;
74920;SDS011;63483;47.384;8.860;2023-04-24T12:54:55;3.05;;;1.85;;
74920;SDS011;63483;47.384;8.860;2023-04-24T12:57:22;4.70;;;1.73;;
74920;SDS011;63483;47.384;8.860;2023-04-24T12:59:48;3.72;;;1.70;;
74920;SDS011;63483;47.384;8.860;2023-04-24T13:02:14;5.10;;;2.13;;
74920;SDS011;63483;47.384;8.860;2023-04-24T13:04:43;3.40;;;1.73;;
74920;SDS011;63483;47.384;8.860;2023-04-24T13:07:09;3.13;;;2.15;;
74920;SDS011;63483;47.384;8.860;2023-04-24T13:09:34;2.77;;;1.50;;
74920;SDS011;63483;47.384;8.860;2023-04-24T13:12:00;3.13;;;2.05;;
74920;SDS011;63483;47.384;8.860;2023-04-24T13:14:26;4.05;;;2.15;;
74920;SDS011;63483;47.384;8.860;2023-04-24T13:16:51;3.00;;;1.90;;
74920;SDS011;63483;47.384;8.860;2023-04-24T13:19:17;3.37;;;2.30;;
74920;SDS011;63483;47.384;8.860;2023-04-24T13:21:43;4.47;;;2.28;;
74920;SDS011;63483;47.384;8.860;2023-04-24T13:24:08;5.03;;;1.90;;
74920;SDS011;63483;47.384;8.860;2023-04-24T13:26:34;3.15;;;2.20;;
74920;SDS011;63483;47.384;8.860;2023-04-24T13:29:00;3.83;;;2.10;;
74920;SDS011;63483;47.384;8.860;2023-04-24T13:31:25;2.83;;;1.60;;
74920;SDS011;63483;47.384;8.860;2023-04-24T13:33:51;3.15;;;1.40;;
74920;SDS011;63483;47.384;8.860;2023-04-24T13:36:16;3.87;;;1.60;;
74920;SDS011;63483;47.384;8.860;2023-04-24T13:38:42;2.78;;;1.42;;
74920;SDS011;63483;47.384;8.860;2023-04-24T13:41:09;2.50;;;1.57;;
74920;SDS011;63483;47.384;8.860;2023-04-24T13:43:35;3.08;;;1.60;;
74920;SDS011;63483;47.384;8.860;2023-04-24T13:46:00;2.67;;;1.80;;
74920;SDS011;63483;47.384;8.860;2023-04-24T13:48:28;2.25;;;1.33;;
74920;SDS011;63483;47.384;8.860;2023-04-24T13:50:53;3.55;;;1.63;;
74920;SDS011;63483;47.384;8.860;2023-04-24T13:53:19;2.93;;;1.57;;
74920;SDS011;63483;47.384;8.860;2023-04-24T13:55:44;2.73;;;1.30;;
74920;SDS011;63483;47.384;8.860;2023-04-24T13:58:10;2.63;;;1.33;;
74920;SDS011;63483;47.384;8.860;2023-04-24T14:00:35;2.13;;;1.40;;
74920;SDS011;63483;47.384;8.860;2023-04-24T14:03:01;2.33;;;1.58;;
74920;SDS011;63483;47.384;8.860;2023-04-24T14:05:26;2.43;;;1.50;;
74920;SDS011;63483;47.384;8.860;2023-04-24T14:07:51;3.00;;;1.80;;
74920;SDS011;63483;47.384;8.860;2023-04-24T14:10:17;2.90;;;1.80;;
74920;SDS011;63483;47.384;8.860;2023-04-24T14:12:42;3.23;;;1.67;;
74920;SDS011;63483;47.384;8.860;2023-04-24T14:15:08;2.65;;;1.50;;
74920;SDS011;63483;47.384;8.860;2023-04-24T14:17:34;2.67;;;1.50;;
74920;SDS011;63483;47.384;8.860;2023-04-24T14:19:59;2.45;;;1.60;;
74920;SDS011;63483;47.384;8.860;2023-04-24T14:22:25;2.23;;;1.60;;
74920;SDS011;63483;47.384;8.860;2023-04-24T14:24:51;4.07;;;2.15;;
74920;SDS011;63483;47.384;8.860;2023-04-24T14:27:16;5.40;;;2.07;;
74920;SDS011;63483;47.384;8.860;2023-04-24T14:29:41;3.67;;;1.90;;
74920;SDS011;63483;47.384;8.860;2023-04-24T14:32:08;5.38;;;2.00;;
74920;SDS011;63483;47.384;8.860;2023-04-24T14:34:34;4.03;;;2.40;;
74920;SDS011;63483;47.384;8.860;2023-04-24T14:36:59;5.72;;;1.90;;
74920;SDS011;63483;47.384;8.860;2023-04-24T14:39:25;2.80;;;2.07;;
74920;SDS011;63483;47.384;8.860;2023-04-24T14:41:50;5.47;;;2.07;;
74920;SDS011;63483;47.384;8.860;2023-04-24T14:44:16;3.13;;;2.00;;
74920;SDS011;63483;47.384;8.860;2023-04-24T14:46:41;3.77;;;2.60;;
74920;SDS011;63483;47.384;8.860;2023-04-24T14:49:07;4.87;;;2.23;;
74920;SDS011;63483;47.384;8.860;2023-04-24T14:51:34;3.55;;;2.08;;
74920;SDS011;63483;47.384;8.860;2023-04-24T14:54:00;3.22;;;2.58;;
74920;SDS011;63483;47.384;8.860;2023-04-24T14:56:26;5.23;;;2.60;;
74920;SDS011;63483;47.384;8.860;2023-04-24T14:58:52;2.67;;;1.50;;
74920;SDS011;63483;47.384;8.860;2023-04-24T15:01:17;4.85;;;2.20;;